sensor_id;sensor_type;location;lat;lon;timestamp;P1;durP1;ratioP1;P2;durP2;ratioP2
28078;SDS011;15388;42.238;24.684;2023-06-22T00:02:18;12.73;;;11.37;;
28078;SDS011;15388;42.238;24.684;2023-06-22T00:04:43;13.87;;;11.90;;
28078;SDS011;15388;42.238;24.684;2023-06-22T00:07:09;17.08;;;12.50;;
28078;SDS011;15388;42.238;24.684;2023-06-22T00:09:34;12.68;;;11.45;;
28078;SDS011;15388;42.238;24.684;2023-06-22T00:11:59;12.47;;;11.17;;
28078;SDS011;15388;42.238;24.684;2023-06-22T00:14:25;13.05;;;11.75;;
28078;SDS011;15388;42.238;24.684;2023-06-22T00:16:50;14.13;;;11.55;;
28078;SDS011;15388;42.238;24.684;2023-06-22T00:19:20;14.10;;;11.95;;
28078;SDS011;15388;42.238;24.684;2023-06-22T00:21:46;12.13;;;11.02;;
28078;SDS011;15388;42.238;24.684;2023-06-22T00:24:12;13.43;;;12.13;;
28078;SDS011;15388;42.238;24.684;2023-06-22T00:26:37;13.52;;;12.05;;
28078;SDS011;15388;42.238;24.684;2023-06-22T00:29:02;12.60;;;11.13;;
28078;SDS011;15388;42.238;24.684;2023-06-22T00:31:27;12.87;;;11.67;;
28078;SDS011;15388;42.238;24.684;2023-06-22T00:33:53;13.25;;;12.05;;
28078;SDS011;15388;42.238;24.684;2023-06-22T00:36:18;13.82;;;12.52;;
28078;SDS011;15388;42.238;24.684;2023-06-22T00:38:44;13.40;;;11.98;;
28078;SDS011;15388;42.238;24.684;2023-06-22T00:41:09;14.40;;;13.10;;
28078;SDS011;15388;42.238;24.684;2023-06-22T00:43:34;15.55;;;13.80;;
28078;SDS011;15388;42.238;24.684;2023-06-22T00:45:59;15.93;;;14.38;;
28078;SDS011;15388;42.238;24.684;2023-06-22T00:48:25;14.55;;;13.18;;
28078;SDS011;15388;42.238;24.684;2023-06-22T00:50:50;15.07;;;13.50;;
28078;SDS011;15388;42.238;24.684;2023-06-22T00:53:18;14.70;;;13.30;;
28078;SDS011;15388;42.238;24.684;2023-06-22T00:55:44;17.27;;;14.07;;
28078;SDS011;15388;42.238;24.684;2023-06-22T00:58:13;16.00;;;14.40;;
28078;SDS011;15388;42.238;24.684;2023-06-22T01:00:39;16.25;;;14.65;;
28078;SDS011;15388;42.238;24.684;2023-06-22T01:03:04;15.15;;;13.65;;
28078;SDS011;15388;42.238;24.684;2023-06-22T01:05:33;16.25;;;14.65;;
28078;SDS011;15388;42.238;24.684;2023-06-22T01:13:02;15.43;;;13.85;;
28078;SDS011;15388;42.238;24.684;2023-06-22T01:15:40;16.95;;;15.32;;
28078;SDS011;15388;42.238;24.684;2023-06-22T01:18:06;14.52;;;13.13;;
28078;SDS011;15388;42.238;24.684;2023-06-22T01:20:34;16.43;;;13.73;;
28078;SDS011;15388;42.238;24.684;2023-06-22T01:25:26;14.48;;;12.98;;
28078;SDS011;15388;42.238;24.684;2023-06-22T01:28:39;16.73;;;12.57;;
28078;SDS011;15388;42.238;24.684;2023-06-22T01:30:42;15.48;;;13.98;;
28078;SDS011;15388;42.238;24.684;2023-06-22T01:33:10;15.63;;;13.30;;
28078;SDS011;15388;42.238;24.684;2023-06-22T01:35:35;15.77;;;12.27;;
28078;SDS011;15388;42.238;24.684;2023-06-22T01:38:01;15.90;;;13.07;;
28078;SDS011;15388;42.238;24.684;2023-06-22T01:40:26;16.15;;;12.70;;
28078;SDS011;15388;42.238;24.684;2023-06-22T01:42:52;14.70;;;12.73;;
28078;SDS011;15388;42.238;24.684;2023-06-22T01:45:18;15.52;;;14.02;;
28078;SDS011;15388;42.238;24.684;2023-06-22T01:47:43;14.77;;;13.27;;
28078;SDS011;15388;42.238;24.684;2023-06-22T01:50:09;14.65;;;12.43;;
28078;SDS011;15388;42.238;24.684;2023-06-22T01:52:34;14.68;;;13.18;;
28078;SDS011;15388;42.238;24.684;2023-06-22T01:55:00;14.77;;;13.30;;
28078;SDS011;15388;42.238;24.684;2023-06-22T01:57:26;14.70;;;13.15;;
28078;SDS011;15388;42.238;24.684;2023-06-22T02:00:04;15.05;;;13.55;;
28078;SDS011;15388;42.238;24.684;2023-06-22T02:03:07;14.88;;;12.82;;
28078;SDS011;15388;42.238;24.684;2023-06-22T02:05:24;15.05;;;13.48;;
28078;SDS011;15388;42.238;24.684;2023-06-22T02:08:03;15.32;;;13.38;;
28078;SDS011;15388;42.238;24.684;2023-06-22T02:10:31;14.90;;;13.27;;
28078;SDS011;15388;42.238;24.684;2023-06-22T02:12:57;15.80;;;13.43;;
28078;SDS011;15388;42.238;24.684;2023-06-22T02:15:23;14.20;;;12.80;;
28078;SDS011;15388;42.238;24.684;2023-06-22T02:17:49;16.13;;;14.48;;
28078;SDS011;15388;42.238;24.684;2023-06-22T02:20:14;14.65;;;13.25;;
28078;SDS011;15388;42.238;24.684;2023-06-22T02:22:40;16.85;;;14.43;;
28078;SDS011;15388;42.238;24.684;2023-06-22T02:25:05;27.77;;;14.38;;
28078;SDS011;15388;42.238;24.684;2023-06-22T02:27:30;15.93;;;14.00;;
28078;SDS011;15388;42.238;24.684;2023-06-22T02:29:56;18.98;;;13.80;;
28078;SDS011;15388;42.238;24.684;2023-06-22T02:32:22;19.38;;;13.27;;
28078;SDS011;15388;42.238;24.684;2023-06-22T02:34:47;17.87;;;13.67;;
28078;SDS011;15388;42.238;24.684;2023-06-22T02:37:12;26.23;;;13.80;;
28078;SDS011;15388;42.238;24.684;2023-06-22T02:39:39;16.60;;;14.38;;
28078;SDS011;15388;42.238;24.684;2023-06-22T02:42:05;18.15;;;13.60;;
28078;SDS011;15388;42.238;24.684;2023-06-22T02:44:30;14.95;;;13.40;;
28078;SDS011;15388;42.238;24.684;2023-06-22T02:46:56;17.58;;;13.85;;
28078;SDS011;15388;42.238;24.684;2023-06-22T02:49:21;15.40;;;13.77;;
28078;SDS011;15388;42.238;24.684;2023-06-22T02:51:47;16.83;;;15.13;;
28078;SDS011;15388;42.238;24.684;2023-06-22T02:54:12;16.15;;;14.48;;
28078;SDS011;15388;42.238;24.684;2023-06-22T02:56:37;20.83;;;14.80;;
28078;SDS011;15388;42.238;24.684;2023-06-22T02:59:04;17.85;;;13.45;;
28078;SDS011;15388;42.238;24.684;2023-06-22T03:01:30;31.55;;;16.55;;
28078;SDS011;15388;42.238;24.684;2023-06-22T03:04:03;31.48;;;15.77;;
28078;SDS011;15388;42.238;24.684;2023-06-22T03:06:28;16.80;;;15.02;;
28078;SDS011;15388;42.238;24.684;2023-06-22T03:09:00;16.80;;;13.80;;
28078;SDS011;15388;42.238;24.684;2023-06-22T03:11:26;19.23;;;14.20;;
28078;SDS011;15388;42.238;24.684;2023-06-22T03:13:51;16.00;;;14.18;;
28078;SDS011;15388;42.238;24.684;2023-06-22T03:16:18;17.05;;;15.07;;
28078;SDS011;15388;42.238;24.684;2023-06-22T03:18:43;16.13;;;14.43;;
28078;SDS011;15388;42.238;24.684;2023-06-22T03:21:08;17.13;;;15.35;;
28078;SDS011;15388;42.238;24.684;2023-06-22T03:23:33;32.07;;;16.93;;
28078;SDS011;15388;42.238;24.684;2023-06-22T03:25:59;16.60;;;14.43;;
28078;SDS011;15388;42.238;24.684;2023-06-22T03:28:24;19.98;;;15.05;;
28078;SDS011;15388;42.238;24.684;2023-06-22T03:30:49;15.90;;;14.32;;
28078;SDS011;15388;42.238;24.684;2023-06-22T03:33:14;18.17;;;15.43;;
28078;SDS011;15388;42.238;24.684;2023-06-22T03:35:40;21.00;;;14.85;;
28078;SDS011;15388;42.238;24.684;2023-06-22T03:38:05;19.93;;;15.20;;
28078;SDS011;15388;42.238;24.684;2023-06-22T03:40:31;15.57;;;13.07;;
28078;SDS011;15388;42.238;24.684;2023-06-22T03:42:56;15.38;;;13.68;;
28078;SDS011;15388;42.238;24.684;2023-06-22T03:45:22;14.87;;;13.37;;
28078;SDS011;15388;42.238;24.684;2023-06-22T03:47:47;14.43;;;12.95;;
28078;SDS011;15388;42.238;24.684;2023-06-22T03:50:12;14.25;;;12.85;;
28078;SDS011;15388;42.238;24.684;2023-06-22T03:52:38;18.35;;;14.02;;
28078;SDS011;15388;42.238;24.684;2023-06-22T03:55:05;15.00;;;13.43;;
28078;SDS011;15388;42.238;24.684;2023-06-22T03:57:33;15.05;;;12.88;;
28078;SDS011;15388;42.238;24.684;2023-06-22T03:59:58;19.15;;;14.50;;
28078;SDS011;15388;42.238;24.684;2023-06-22T04:02:24;15.50;;;13.93;;
28078;SDS011;15388;42.238;24.684;2023-06-22T04:04:49;18.27;;;15.43;;
28078;SDS011;15388;42.238;24.684;2023-06-22T04:07:14;17.63;;;15.43;;
28078;SDS011;15388;42.238;24.684;2023-06-22T04:09:40;19.60;;;14.98;;
28078;SDS011;15388;42.238;24.684;2023-06-22T04:12:05;18.48;;;14.63;;
28078;SDS011;15388;42.238;24.684;2023-06-22T04:14:31;33.17;;;16.02;;
28078;SDS011;15388;42.238;24.684;2023-06-22T04:16:57;34.13;;;16.23;;
28078;SDS011;15388;42.238;24.684;2023-06-22T04:19:22;20.23;;;16.80;;
28078;SDS011;15388;42.238;24.684;2023-06-22T04:21:48;21.00;;;15.85;;
28078;SDS011;15388;42.238;24.684;2023-06-22T04:24:13;18.60;;;15.30;;
28078;SDS011;15388;42.238;24.684;2023-06-22T04:26:39;17.02;;;15.35;;
28078;SDS011;15388;42.238;24.684;2023-06-22T04:31:33;22.58;;;14.90;;
28078;SDS011;15388;42.238;24.684;2023-06-22T04:34:01;16.40;;;13.63;;
28078;SDS011;15388;42.238;24.684;2023-06-22T04:36:35;17.35;;;15.38;;
28078;SDS011;15388;42.238;24.684;2023-06-22T04:39:03;19.05;;;15.25;;
28078;SDS011;15388;42.238;24.684;2023-06-22T04:41:28;18.17;;;15.55;;
28078;SDS011;15388;42.238;24.684;2023-06-22T04:43:54;17.53;;;15.77;;
28078;SDS011;15388;42.238;24.684;2023-06-22T04:46:24;20.27;;;16.70;;
28078;SDS011;15388;42.238;24.684;2023-06-22T04:48:50;19.75;;;17.65;;
28078;SDS011;15388;42.238;24.684;2023-06-22T04:51:15;25.03;;;18.03;;
28078;SDS011;15388;42.238;24.684;2023-06-22T04:53:40;16.08;;;14.45;;
28078;SDS011;15388;42.238;24.684;2023-06-22T04:56:06;16.17;;;14.50;;
28078;SDS011;15388;42.238;24.684;2023-06-22T04:58:31;13.85;;;12.23;;
28078;SDS011;15388;42.238;24.684;2023-06-22T05:00:57;15.15;;;13.55;;
28078;SDS011;15388;42.238;24.684;2023-06-22T05:03:22;27.00;;;13.97;;
28078;SDS011;15388;42.238;24.684;2023-06-22T05:05:50;14.70;;;12.82;;
28078;SDS011;15388;42.238;24.684;2023-06-22T05:08:16;16.80;;;13.68;;
28078;SDS011;15388;42.238;24.684;2023-06-22T05:10:41;14.77;;;13.35;;
28078;SDS011;15388;42.238;24.684;2023-06-22T05:13:06;21.77;;;12.90;;
28078;SDS011;15388;42.238;24.684;2023-06-22T05:15:31;17.60;;;13.52;;
28078;SDS011;15388;42.238;24.684;2023-06-22T05:18:01;15.02;;;13.00;;
28078;SDS011;15388;42.238;24.684;2023-06-22T05:20:30;13.82;;;12.32;;
28078;SDS011;15388;42.238;24.684;2023-06-22T05:22:55;13.38;;;12.02;;
28078;SDS011;15388;42.238;24.684;2023-06-22T05:25:20;16.17;;;11.97;;
28078;SDS011;15388;42.238;24.684;2023-06-22T05:27:46;27.57;;;12.57;;
28078;SDS011;15388;42.238;24.684;2023-06-22T05:30:11;13.00;;;11.73;;
28078;SDS011;15388;42.238;24.684;2023-06-22T05:32:36;13.65;;;12.13;;
28078;SDS011;15388;42.238;24.684;2023-06-22T05:35:02;13.15;;;11.77;;
28078;SDS011;15388;42.238;24.684;2023-06-22T05:37:28;15.63;;;11.93;;
28078;SDS011;15388;42.238;24.684;2023-06-22T05:39:53;26.77;;;13.30;;
28078;SDS011;15388;42.238;24.684;2023-06-22T05:42:20;17.50;;;13.05;;
28078;SDS011;15388;42.238;24.684;2023-06-22T05:44:45;15.88;;;11.68;;
28078;SDS011;15388;42.238;24.684;2023-06-22T05:47:12;16.50;;;12.10;;
28078;SDS011;15388;42.238;24.684;2023-06-22T05:49:37;14.20;;;11.63;;
28078;SDS011;15388;42.238;24.684;2023-06-22T05:52:02;17.08;;;12.60;;
28078;SDS011;15388;42.238;24.684;2023-06-22T05:54:28;15.48;;;11.88;;
28078;SDS011;15388;42.238;24.684;2023-06-22T05:56:53;13.73;;;12.43;;
28078;SDS011;15388;42.238;24.684;2023-06-22T05:59:19;15.77;;;12.20;;
28078;SDS011;15388;42.238;24.684;2023-06-22T06:01:44;14.43;;;11.93;;
28078;SDS011;15388;42.238;24.684;2023-06-22T06:04:09;11.05;;;9.95;;
28078;SDS011;15388;42.238;24.684;2023-06-22T06:06:35;13.10;;;11.13;;
28078;SDS011;15388;42.238;24.684;2023-06-22T06:09:02;12.93;;;10.75;;
28078;SDS011;15388;42.238;24.684;2023-06-22T06:11:28;12.25;;;10.98;;
28078;SDS011;15388;42.238;24.684;2023-06-22T06:13:53;12.83;;;11.73;;
28078;SDS011;15388;42.238;24.684;2023-06-22T06:16:19;12.18;;;10.90;;
28078;SDS011;15388;42.238;24.684;2023-06-22T06:18:45;11.98;;;10.93;;
28078;SDS011;15388;42.238;24.684;2023-06-22T06:21:11;14.82;;;9.52;;
28078;SDS011;15388;42.238;24.684;2023-06-22T06:23:36;12.47;;;10.57;;
28078;SDS011;15388;42.238;24.684;2023-06-22T06:26:01;11.70;;;10.50;;
28078;SDS011;15388;42.238;24.684;2023-06-22T06:28:26;11.45;;;10.35;;
28078;SDS011;15388;42.238;24.684;2023-06-22T06:30:52;12.38;;;11.05;;
28078;SDS011;15388;42.238;24.684;2023-06-22T06:33:17;10.90;;;9.70;;
28078;SDS011;15388;42.238;24.684;2023-06-22T06:35:42;26.37;;;11.57;;
28078;SDS011;15388;42.238;24.684;2023-06-22T06:38:08;10.30;;;9.27;;
28078;SDS011;15388;42.238;24.684;2023-06-22T06:40:33;12.10;;;9.82;;
28078;SDS011;15388;42.238;24.684;2023-06-22T06:42:58;12.97;;;9.83;;
28078;SDS011;15388;42.238;24.684;2023-06-22T06:45:23;10.97;;;9.87;;
28078;SDS011;15388;42.238;24.684;2023-06-22T06:47:51;10.45;;;9.45;;
28078;SDS011;15388;42.238;24.684;2023-06-22T06:50:17;9.85;;;8.85;;
28078;SDS011;15388;42.238;24.684;2023-06-22T06:52:42;16.30;;;10.48;;
28078;SDS011;15388;42.238;24.684;2023-06-22T06:55:08;91.65;;;15.18;;
28078;SDS011;15388;42.238;24.684;2023-06-22T06:57:36;11.43;;;10.10;;
28078;SDS011;15388;42.238;24.684;2023-06-22T07:00:02;11.23;;;9.00;;
28078;SDS011;15388;42.238;24.684;2023-06-22T07:02:34;10.50;;;9.52;;
28078;SDS011;15388;42.238;24.684;2023-06-22T07:04:59;10.43;;;9.53;;
28078;SDS011;15388;42.238;24.684;2023-06-22T07:07:24;13.00;;;8.87;;
28078;SDS011;15388;42.238;24.684;2023-06-22T07:09:50;17.87;;;9.07;;
28078;SDS011;15388;42.238;24.684;2023-06-22T07:12:15;11.93;;;10.02;;
28078;SDS011;15388;42.238;24.684;2023-06-22T07:14:40;12.13;;;9.45;;
28078;SDS011;15388;42.238;24.684;2023-06-22T07:17:06;19.10;;;10.43;;
28078;SDS011;15388;42.238;24.684;2023-06-22T07:19:32;10.45;;;9.48;;
28078;SDS011;15388;42.238;24.684;2023-06-22T07:21:58;12.00;;;10.82;;
28078;SDS011;15388;42.238;24.684;2023-06-22T07:24:24;12.98;;;9.73;;
28078;SDS011;15388;42.238;24.684;2023-06-22T07:26:49;11.45;;;10.35;;
28078;SDS011;15388;42.238;24.684;2023-06-22T07:29:18;11.65;;;10.15;;
28078;SDS011;15388;42.238;24.684;2023-06-22T07:31:43;12.00;;;10.70;;
28078;SDS011;15388;42.238;24.684;2023-06-22T07:34:08;12.98;;;11.43;;
28078;SDS011;15388;42.238;24.684;2023-06-22T07:36:34;11.33;;;10.23;;
28078;SDS011;15388;42.238;24.684;2023-06-22T07:39:00;11.10;;;10.05;;
28078;SDS011;15388;42.238;24.684;2023-06-22T07:41:26;9.93;;;9.00;;
28078;SDS011;15388;42.238;24.684;2023-06-22T07:43:51;12.25;;;9.68;;
28078;SDS011;15388;42.238;24.684;2023-06-22T07:46:16;10.60;;;9.60;;
28078;SDS011;15388;42.238;24.684;2023-06-22T07:48:41;10.27;;;9.23;;
28078;SDS011;15388;42.238;24.684;2023-06-22T07:53:34;14.93;;;9.97;;
28078;SDS011;15388;42.238;24.684;2023-06-22T07:55:59;12.50;;;10.17;;
28078;SDS011;15388;42.238;24.684;2023-06-22T07:58:24;10.33;;;9.47;;
28078;SDS011;15388;42.238;24.684;2023-06-22T08:00:49;11.30;;;10.18;;
28078;SDS011;15388;42.238;24.684;2023-06-22T08:03:15;10.50;;;9.50;;
28078;SDS011;15388;42.238;24.684;2023-06-22T08:05:40;11.05;;;9.90;;
28078;SDS011;15388;42.238;24.684;2023-06-22T08:08:05;11.55;;;10.40;;
28078;SDS011;15388;42.238;24.684;2023-06-22T08:10:31;10.60;;;9.40;;
28078;SDS011;15388;42.238;24.684;2023-06-22T08:12:56;10.70;;;9.70;;
28078;SDS011;15388;42.238;24.684;2023-06-22T08:15:23;10.45;;;9.43;;
28078;SDS011;15388;42.238;24.684;2023-06-22T08:17:48;10.00;;;9.07;;
28078;SDS011;15388;42.238;24.684;2023-06-22T08:20:13;13.57;;;10.53;;
28078;SDS011;15388;42.238;24.684;2023-06-22T08:22:39;18.87;;;11.50;;
28078;SDS011;15388;42.238;24.684;2023-06-22T08:25:05;10.90;;;9.90;;
28078;SDS011;15388;42.238;24.684;2023-06-22T08:27:31;10.63;;;9.63;;
28078;SDS011;15388;42.238;24.684;2023-06-22T08:30:00;10.05;;;9.05;;
28078;SDS011;15388;42.238;24.684;2023-06-22T08:32:26;10.10;;;9.10;;
28078;SDS011;15388;42.238;24.684;2023-06-22T08:34:52;10.82;;;9.30;;
28078;SDS011;15388;42.238;24.684;2023-06-22T08:37:18;10.35;;;9.35;;
28078;SDS011;15388;42.238;24.684;2023-06-22T08:39:44;9.55;;;8.70;;
28078;SDS011;15388;42.238;24.684;2023-06-22T08:42:09;12.40;;;8.83;;
28078;SDS011;15388;42.238;24.684;2023-06-22T08:44:34;11.27;;;8.60;;
28078;SDS011;15388;42.238;24.684;2023-06-22T08:49:27;9.45;;;8.40;;
28078;SDS011;15388;42.238;24.684;2023-06-22T08:51:52;9.07;;;8.33;;
28078;SDS011;15388;42.238;24.684;2023-06-22T08:54:19;8.60;;;7.80;;
28078;SDS011;15388;42.238;24.684;2023-06-22T08:56:44;9.37;;;8.43;;
28078;SDS011;15388;42.238;24.684;2023-06-22T08:59:10;9.47;;;7.67;;
28078;SDS011;15388;42.238;24.684;2023-06-22T09:01:35;10.87;;;7.43;;
28078;SDS011;15388;42.238;24.684;2023-06-22T09:04:01;9.70;;;8.83;;
28078;SDS011;15388;42.238;24.684;2023-06-22T09:06:26;9.20;;;7.27;;
28078;SDS011;15388;42.238;24.684;2023-06-22T09:08:51;8.90;;;8.03;;
28078;SDS011;15388;42.238;24.684;2023-06-22T09:11:16;9.20;;;8.30;;
28078;SDS011;15388;42.238;24.684;2023-06-22T09:13:42;9.47;;;8.00;;
28078;SDS011;15388;42.238;24.684;2023-06-22T09:16:07;9.57;;;8.67;;
28078;SDS011;15388;42.238;24.684;2023-06-22T09:18:33;11.70;;;8.23;;
28078;SDS011;15388;42.238;24.684;2023-06-22T09:20:59;9.02;;;8.05;;
28078;SDS011;15388;42.238;24.684;2023-06-22T09:23:24;9.27;;;8.33;;
28078;SDS011;15388;42.238;24.684;2023-06-22T09:25:49;9.03;;;8.33;;
28078;SDS011;15388;42.238;24.684;2023-06-22T09:28:15;9.40;;;8.40;;
28078;SDS011;15388;42.238;24.684;2023-06-22T09:30:40;8.87;;;8.07;;
28078;SDS011;15388;42.238;24.684;2023-06-22T09:33:05;8.33;;;7.53;;
28078;SDS011;15388;42.238;24.684;2023-06-22T09:35:31;8.37;;;7.53;;
28078;SDS011;15388;42.238;24.684;2023-06-22T09:37:56;9.60;;;7.77;;
28078;SDS011;15388;42.238;24.684;2023-06-22T09:40:21;9.77;;;7.87;;
28078;SDS011;15388;42.238;24.684;2023-06-22T09:42:46;9.13;;;8.23;;
28078;SDS011;15388;42.238;24.684;2023-06-22T09:45:12;8.40;;;7.77;;
28078;SDS011;15388;42.238;24.684;2023-06-22T09:47:37;8.57;;;7.83;;
28078;SDS011;15388;42.238;24.684;2023-06-22T09:50:02;9.77;;;7.40;;
28078;SDS011;15388;42.238;24.684;2023-06-22T09:52:28;8.93;;;8.13;;
28078;SDS011;15388;42.238;24.684;2023-06-22T09:54:53;9.00;;;7.97;;
28078;SDS011;15388;42.238;24.684;2023-06-22T09:57:19;8.33;;;7.20;;
28078;SDS011;15388;42.238;24.684;2023-06-22T09:59:44;9.33;;;7.83;;
28078;SDS011;15388;42.238;24.684;2023-06-22T10:02:09;27.87;;;9.03;;
28078;SDS011;15388;42.238;24.684;2023-06-22T10:04:35;8.70;;;7.80;;
28078;SDS011;15388;42.238;24.684;2023-06-22T10:07:00;11.88;;;8.43;;
28078;SDS011;15388;42.238;24.684;2023-06-22T10:09:26;8.57;;;7.87;;
28078;SDS011;15388;42.238;24.684;2023-06-22T10:11:51;70.90;;;11.40;;
28078;SDS011;15388;42.238;24.684;2023-06-22T10:14:16;8.50;;;7.80;;
28078;SDS011;15388;42.238;24.684;2023-06-22T10:16:42;9.43;;;8.63;;
28078;SDS011;15388;42.238;24.684;2023-06-22T10:19:07;23.67;;;8.63;;
28078;SDS011;15388;42.238;24.684;2023-06-22T10:21:32;8.43;;;7.83;;
28078;SDS011;15388;42.238;24.684;2023-06-22T10:23:58;8.73;;;7.82;;
28078;SDS011;15388;42.238;24.684;2023-06-22T10:26:26;10.63;;;7.68;;
28078;SDS011;15388;42.238;24.684;2023-06-22T10:28:54;8.45;;;7.63;;
28078;SDS011;15388;42.238;24.684;2023-06-22T10:31:19;8.73;;;7.80;;
28078;SDS011;15388;42.238;24.684;2023-06-22T10:33:44;9.07;;;8.23;;
28078;SDS011;15388;42.238;24.684;2023-06-22T10:36:10;9.47;;;8.23;;
28078;SDS011;15388;42.238;24.684;2023-06-22T10:38:36;11.93;;;7.30;;
28078;SDS011;15388;42.238;24.684;2023-06-22T10:41:01;8.87;;;7.93;;
28078;SDS011;15388;42.238;24.684;2023-06-22T10:43:27;10.32;;;8.75;;
28078;SDS011;15388;42.238;24.684;2023-06-22T10:45:52;8.53;;;7.53;;
28078;SDS011;15388;42.238;24.684;2023-06-22T10:48:18;11.17;;;8.13;;
28078;SDS011;15388;42.238;24.684;2023-06-22T10:50:43;8.67;;;7.63;;
28078;SDS011;15388;42.238;24.684;2023-06-22T10:53:08;11.33;;;9.03;;
28078;SDS011;15388;42.238;24.684;2023-06-22T10:55:33;9.40;;;8.60;;
28078;SDS011;15388;42.238;24.684;2023-06-22T10:57:59;8.33;;;7.63;;
28078;SDS011;15388;42.238;24.684;2023-06-22T11:00:24;8.47;;;7.73;;
28078;SDS011;15388;42.238;24.684;2023-06-22T11:02:49;8.77;;;8.07;;
28078;SDS011;15388;42.238;24.684;2023-06-22T11:05:14;37.97;;;10.67;;
28078;SDS011;15388;42.238;24.684;2023-06-22T11:07:43;8.50;;;7.80;;
28078;SDS011;15388;42.238;24.684;2023-06-22T11:10:09;8.15;;;7.45;;
28078;SDS011;15388;42.238;24.684;2023-06-22T11:12:34;26.40;;;8.70;;
28078;SDS011;15388;42.238;24.684;2023-06-22T11:15:00;7.40;;;6.73;;
28078;SDS011;15388;42.238;24.684;2023-06-22T11:17:25;9.15;;;8.25;;
28078;SDS011;15388;42.238;24.684;2023-06-22T11:19:51;8.37;;;7.57;;
28078;SDS011;15388;42.238;24.684;2023-06-22T11:22:16;11.07;;;8.30;;
28078;SDS011;15388;42.238;24.684;2023-06-22T11:24:42;8.90;;;7.30;;
28078;SDS011;15388;42.238;24.684;2023-06-22T11:27:08;10.88;;;7.47;;
28078;SDS011;15388;42.238;24.684;2023-06-22T11:29:33;10.07;;;9.10;;
28078;SDS011;15388;42.238;24.684;2023-06-22T11:31:58;11.93;;;8.60;;
28078;SDS011;15388;42.238;24.684;2023-06-22T11:34:23;11.57;;;8.27;;
28078;SDS011;15388;42.238;24.684;2023-06-22T11:36:49;19.10;;;8.73;;
28078;SDS011;15388;42.238;24.684;2023-06-22T11:39:15;12.23;;;9.40;;
28078;SDS011;15388;42.238;24.684;2023-06-22T11:41:40;9.70;;;8.70;;
28078;SDS011;15388;42.238;24.684;2023-06-22T11:44:06;8.57;;;7.57;;
28078;SDS011;15388;42.238;24.684;2023-06-22T11:46:32;9.47;;;8.57;;
28078;SDS011;15388;42.238;24.684;2023-06-22T11:48:57;10.20;;;8.27;;
28078;SDS011;15388;42.238;24.684;2023-06-22T11:51:22;20.67;;;8.83;;
28078;SDS011;15388;42.238;24.684;2023-06-22T11:53:49;10.55;;;7.80;;
28078;SDS011;15388;42.238;24.684;2023-06-22T11:56:14;12.53;;;8.63;;
28078;SDS011;15388;42.238;24.684;2023-06-22T11:58:39;24.10;;;9.13;;
28078;SDS011;15388;42.238;24.684;2023-06-22T12:01:05;8.73;;;7.97;;
28078;SDS011;15388;42.238;24.684;2023-06-22T12:03:30;9.33;;;7.73;;
28078;SDS011;15388;42.238;24.684;2023-06-22T12:05:55;9.73;;;8.37;;
28078;SDS011;15388;42.238;24.684;2023-06-22T12:08:21;19.27;;;8.80;;
28078;SDS011;15388;42.238;24.684;2023-06-22T12:10:46;9.97;;;8.70;;
28078;SDS011;15388;42.238;24.684;2023-06-22T12:13:11;8.00;;;7.37;;
28078;SDS011;15388;42.238;24.684;2023-06-22T12:15:36;9.20;;;8.30;;
28078;SDS011;15388;42.238;24.684;2023-06-22T12:18:02;9.30;;;7.50;;
28078;SDS011;15388;42.238;24.684;2023-06-22T12:20:27;8.00;;;7.30;;
28078;SDS011;15388;42.238;24.684;2023-06-22T12:22:53;10.50;;;9.37;;
28078;SDS011;15388;42.238;24.684;2023-06-22T12:25:20;8.60;;;7.90;;
28078;SDS011;15388;42.238;24.684;2023-06-22T12:27:45;8.70;;;8.00;;
28078;SDS011;15388;42.238;24.684;2023-06-22T12:30:11;11.13;;;9.03;;
28078;SDS011;15388;42.238;24.684;2023-06-22T12:35:02;15.48;;;7.53;;
28078;SDS011;15388;42.238;24.684;2023-06-22T12:37:28;10.13;;;7.80;;
28078;SDS011;15388;42.238;24.684;2023-06-22T12:39:54;11.00;;;7.43;;
28078;SDS011;15388;42.238;24.684;2023-06-22T12:42:19;11.57;;;8.20;;
28078;SDS011;15388;42.238;24.684;2023-06-22T12:44:46;12.05;;;8.63;;
28078;SDS011;15388;42.238;24.684;2023-06-22T12:47:11;10.43;;;7.70;;
28078;SDS011;15388;42.238;24.684;2023-06-22T12:49:36;11.70;;;8.43;;
28078;SDS011;15388;42.238;24.684;2023-06-22T12:52:02;24.90;;;9.50;;
28078;SDS011;15388;42.238;24.684;2023-06-22T12:54:27;10.50;;;7.77;;
28078;SDS011;15388;42.238;24.684;2023-06-22T12:56:54;8.30;;;7.60;;
28078;SDS011;15388;42.238;24.684;2023-06-22T12:59:19;47.37;;;11.80;;
28078;SDS011;15388;42.238;24.684;2023-06-22T13:01:44;8.37;;;7.57;;
28078;SDS011;15388;42.238;24.684;2023-06-22T13:04:11;68.83;;;12.80;;
28078;SDS011;15388;42.238;24.684;2023-06-22T13:06:38;18.83;;;8.85;;
28078;SDS011;15388;42.238;24.684;2023-06-22T13:09:03;9.17;;;7.70;;
28078;SDS011;15388;42.238;24.684;2023-06-22T13:11:30;10.50;;;8.38;;
28078;SDS011;15388;42.238;24.684;2023-06-22T13:13:55;44.30;;;11.77;;
28078;SDS011;15388;42.238;24.684;2023-06-22T13:16:20;14.37;;;8.60;;
28078;SDS011;15388;42.238;24.684;2023-06-22T13:18:45;10.70;;;8.73;;
28078;SDS011;15388;42.238;24.684;2023-06-22T13:21:11;10.17;;;7.57;;
28078;SDS011;15388;42.238;24.684;2023-06-22T13:23:36;14.83;;;8.77;;
28078;SDS011;15388;42.238;24.684;2023-06-22T13:26:01;14.00;;;8.67;;
28078;SDS011;15388;42.238;24.684;2023-06-22T13:28:27;8.07;;;7.38;;
28078;SDS011;15388;42.238;24.684;2023-06-22T13:30:55;8.60;;;7.85;;
28078;SDS011;15388;42.238;24.684;2023-06-22T13:33:20;9.70;;;7.03;;
28078;SDS011;15388;42.238;24.684;2023-06-22T13:35:45;12.13;;;8.17;;
28078;SDS011;15388;42.238;24.684;2023-06-22T13:38:10;8.97;;;7.77;;
28078;SDS011;15388;42.238;24.684;2023-06-22T13:40:36;13.40;;;7.80;;
28078;SDS011;15388;42.238;24.684;2023-06-22T13:43:03;10.10;;;8.43;;
28078;SDS011;15388;42.238;24.684;2023-06-22T13:45:28;9.70;;;8.23;;
28078;SDS011;15388;42.238;24.684;2023-06-22T13:47:53;8.13;;;7.53;;
28078;SDS011;15388;42.238;24.684;2023-06-22T13:50:18;8.47;;;7.77;;
28078;SDS011;15388;42.238;24.684;2023-06-22T13:52:44;9.30;;;8.43;;
28078;SDS011;15388;42.238;24.684;2023-06-22T13:55:09;16.93;;;7.93;;
28078;SDS011;15388;42.238;24.684;2023-06-22T13:57:35;9.03;;;7.80;;
28078;SDS011;15388;42.238;24.684;2023-06-22T14:00:00;13.93;;;7.87;;
28078;SDS011;15388;42.238;24.684;2023-06-22T14:02:25;18.87;;;8.97;;
28078;SDS011;15388;42.238;24.684;2023-06-22T14:04:51;11.10;;;7.90;;
28078;SDS011;15388;42.238;24.684;2023-06-22T14:07:16;10.47;;;9.03;;
28078;SDS011;15388;42.238;24.684;2023-06-22T14:09:41;11.60;;;9.27;;
28078;SDS011;15388;42.238;24.684;2023-06-22T14:12:07;9.80;;;7.93;;
28078;SDS011;15388;42.238;24.684;2023-06-22T14:14:32;10.63;;;7.83;;
28078;SDS011;15388;42.238;24.684;2023-06-22T14:16:58;19.60;;;9.73;;
28078;SDS011;15388;42.238;24.684;2023-06-22T14:19:23;25.60;;;10.10;;
28078;SDS011;15388;42.238;24.684;2023-06-22T14:21:48;12.77;;;8.63;;
28078;SDS011;15388;42.238;24.684;2023-06-22T14:24:14;12.10;;;8.47;;
28078;SDS011;15388;42.238;24.684;2023-06-22T14:26:39;10.77;;;7.63;;
28078;SDS011;15388;42.238;24.684;2023-06-22T14:29:04;10.70;;;7.97;;